Monteros, Argentina
Current Conditions -  °F | °C
As of 3:00 AM on Sunday 21 Dec 2014 (Local Time) from SANT Reporting Station
Overcast Overcast  
Wind Chill: 19°   Ceiling: 1500
Heat Index: 19°   Visibility: 6mi
Dew Point: 18°   Wind: 9mph
Humidity: 94%   Direction: 180°S
Pressure: 29.77"   Gusts: NA
Location:  27.17°S, 65.5°W
Report Text: SANT 210600Z 18008KT 9999 BKN015 OVC03519/18 Q1008
Loading
Personal Weather Stations






























Interactive Weather Map New forecast layout! Learn more

10-Day Weather Forecast

Advertisements
Track Severe Weather on mobile